createdAt,value
2022-11-03T00:00:38.052Z,9.80
2022-11-03T00:01:38.171Z,9.73
2022-11-03T00:02:38.109Z,9.76
2022-11-03T00:03:38.060Z,9.68
2022-11-03T00:04:38.069Z,9.73
2022-11-03T00:05:38.077Z,9.62
2022-11-03T00:06:38.073Z,9.64
2022-11-03T00:07:38.084Z,9.62
2022-11-03T00:08:38.106Z,9.61
2022-11-03T00:09:38.092Z,9.68
2022-11-03T00:10:38.096Z,9.61
2022-11-03T00:11:38.092Z,9.66
2022-11-03T00:12:38.102Z,9.65
2022-11-03T00:13:38.101Z,9.65
2022-11-03T00:14:38.111Z,9.58
2022-11-03T00:15:38.108Z,9.54
2022-11-03T00:16:38.114Z,9.43
2022-11-03T00:17:38.117Z,9.44
2022-11-03T00:18:38.129Z,9.37
2022-11-03T00:19:38.130Z,9.44
2022-11-03T00:20:38.129Z,9.36
2022-11-03T00:21:38.132Z,9.39
2022-11-03T00:22:38.146Z,9.40
2022-11-03T00:23:38.149Z,9.36
2022-11-03T00:24:38.202Z,9.32
2022-11-03T00:25:38.158Z,9.34
2022-11-03T00:26:38.161Z,9.25
2022-11-03T00:27:38.156Z,9.23
2022-11-03T00:28:38.161Z,9.23
2022-11-03T00:29:38.166Z,9.16
2022-11-03T00:30:38.179Z,9.25
2022-11-03T00:31:38.177Z,9.25
2022-11-03T00:32:38.177Z,9.25
2022-11-03T00:33:38.189Z,9.16
2022-11-03T00:34:38.190Z,9.21
2022-11-03T00:35:38.196Z,9.08
2022-11-03T00:36:38.194Z,9.16
2022-11-03T00:37:38.236Z,9.26
2022-11-03T00:38:38.206Z,9.22
2022-11-03T00:39:38.213Z,9.23
2022-11-03T00:40:38.232Z,9.23
2022-11-03T00:41:38.228Z,9.28
2022-11-03T00:42:38.222Z,9.32
2022-11-03T00:43:38.228Z,9.14
2022-11-03T00:44:38.225Z,9.19
2022-11-03T00:45:38.236Z,9.10
2022-11-03T00:46:38.233Z,9.10
2022-11-03T00:47:38.244Z,9.04
2022-11-03T00:48:38.247Z,9.11
2022-11-03T00:49:38.250Z,9.10
2022-11-03T00:50:38.255Z,9.06
2022-11-03T00:51:38.257Z,9.04
2022-11-03T00:52:38.257Z,9.18
2022-11-03T00:53:38.267Z,9.02
2022-11-03T00:54:38.272Z,9.11
2022-11-03T00:55:38.268Z,9.14
2022-11-03T00:56:38.303Z,8.92
2022-11-03T00:57:38.282Z,9.06
2022-11-03T00:58:38.286Z,9.06
2022-11-03T00:59:38.282Z,9.06
2022-11-03T01:00:38.297Z,9.13
2022-11-03T01:01:44.933Z,9.11
2022-11-03T01:02:38.396Z,9.18
2022-11-03T01:03:38.297Z,9.23
2022-11-03T01:04:38.309Z,9.28
2022-11-03T01:05:38.312Z,9.28
2022-11-03T01:06:38.308Z,9.36
2022-11-03T01:07:38.313Z,9.41
2022-11-03T01:08:38.326Z,9.34
2022-11-03T01:09:38.328Z,9.37
2022-11-03T01:10:38.324Z,9.46
2022-11-03T01:11:38.336Z,9.50
2022-11-03T01:12:38.355Z,9.54
2022-11-03T01:13:38.346Z,9.56
2022-11-03T01:14:38.348Z,9.51
2022-11-03T01:15:38.352Z,9.51
2022-11-03T01:16:38.356Z,9.58
2022-11-03T01:17:38.361Z,9.59
2022-11-03T01:18:38.364Z,9.62
2022-11-03T01:19:38.360Z,9.65
2022-11-03T01:20:38.372Z,9.69
2022-11-03T01:21:38.373Z,9.72
2022-11-03T01:22:38.373Z,9.61
2022-11-03T01:23:38.383Z,9.72
2022-11-03T01:24:38.387Z,9.64
2022-11-03T01:25:38.382Z,9.59
2022-11-03T01:26:38.392Z,9.73
2022-11-03T01:27:38.390Z,9.65
2022-11-03T01:28:38.421Z,9.61
2022-11-03T01:29:38.399Z,9.58
2022-11-03T01:30:38.400Z,9.61
2022-11-03T01:31:38.407Z,9.61
2022-11-03T01:32:38.416Z,9.72
2022-11-03T01:33:38.423Z,9.62
2022-11-03T01:34:38.414Z,9.64
2022-11-03T01:35:38.427Z,9.51
2022-11-03T01:36:38.432Z,9.48
2022-11-03T01:37:38.436Z,9.58
2022-11-03T01:38:38.431Z,9.50
2022-11-03T01:39:38.435Z,9.51
2022-11-03T01:40:38.446Z,9.54
2022-11-03T01:41:38.443Z,9.50
2022-11-03T01:42:38.446Z,9.47
2022-11-03T01:43:38.458Z,9.39
2022-11-03T01:44:38.482Z,9.39
2022-11-03T01:45:38.465Z,9.41
2022-11-03T01:46:38.469Z,9.32
2022-11-03T01:47:38.465Z,9.32
2022-11-03T01:48:38.478Z,9.37
2022-11-03T01:49:38.473Z,9.36
2022-11-03T01:50:38.477Z,9.34
2022-11-03T01:51:38.481Z,9.26
2022-11-03T01:52:38.490Z,9.26
2022-11-03T01:53:38.489Z,9.23
2022-11-03T01:54:38.497Z,9.22
2022-11-03T01:55:38.495Z,9.28
2022-11-03T01:56:38.506Z,9.25
2022-11-03T01:57:38.510Z,9.32
2022-11-03T01:58:38.514Z,9.36
2022-11-03T01:59:38.519Z,9.41
2022-11-03T02:00:38.535Z,9.43
2022-11-03T02:01:38.659Z,9.46
2022-11-03T02:02:38.521Z,9.39
2022-11-03T02:03:38.534Z,9.48
2022-11-03T02:04:38.532Z,9.48
2022-11-03T02:05:38.533Z,9.51
2022-11-03T02:06:38.536Z,9.48
2022-11-03T02:07:38.549Z,9.40
2022-11-03T02:08:38.546Z,9.41
2022-11-03T02:09:38.555Z,9.34
2022-11-03T02:10:38.556Z,9.25
2022-11-03T02:11:38.554Z,9.23
2022-11-03T02:12:38.577Z,9.25
2022-11-03T02:13:38.564Z,9.19
2022-11-03T02:14:38.567Z,9.11
2022-11-03T02:15:38.580Z,9.11
2022-11-03T02:16:38.597Z,9.00
2022-11-03T02:17:38.578Z,9.08
2022-11-03T02:18:38.581Z,9.08
2022-11-03T02:19:38.584Z,9.02
2022-11-03T02:20:38.596Z,9.02
2022-11-03T02:21:38.599Z,8.94
2022-11-03T02:22:38.596Z,8.95
2022-11-03T02:23:38.605Z,8.88
2022-11-03T02:24:38.612Z,8.88
2022-11-03T02:25:38.615Z,8.88
2022-11-03T02:26:38.609Z,9.00
2022-11-03T02:27:38.616Z,8.92
2022-11-03T02:28:38.617Z,8.87
2022-11-03T02:29:38.622Z,8.95
2022-11-03T02:30:38.631Z,8.91
2022-11-03T02:31:38.636Z,8.91
2022-11-03T02:32:38.660Z,8.87
2022-11-03T02:33:38.636Z,8.84
2022-11-03T02:34:38.638Z,8.84
2022-11-03T02:35:38.650Z,8.88
2022-11-03T02:36:38.657Z,8.84
2022-11-03T02:37:38.657Z,8.74
2022-11-03T02:38:38.652Z,8.81
2022-11-03T02:39:38.663Z,8.81
2022-11-03T02:40:38.663Z,8.76
2022-11-03T02:41:38.664Z,8.74
2022-11-03T02:42:38.674Z,8.79
2022-11-03T02:43:38.677Z,8.79
2022-11-03T02:44:38.674Z,8.73
2022-11-03T02:45:38.676Z,8.76
2022-11-03T02:46:38.687Z,8.78
2022-11-03T02:47:38.682Z,8.78
2022-11-03T02:48:38.706Z,8.76
2022-11-03T02:49:38.690Z,8.79
2022-11-03T02:50:38.694Z,8.74
2022-11-03T02:51:38.703Z,8.76
2022-11-03T02:52:38.701Z,8.82
2022-11-03T02:53:38.703Z,8.84
2022-11-03T02:54:38.708Z,8.85
2022-11-03T02:55:38.728Z,8.89
2022-11-03T02:56:38.732Z,8.95
2022-11-03T02:57:38.725Z,8.91
2022-11-03T02:58:38.722Z,8.87
2022-11-03T02:59:38.736Z,8.89
2022-11-03T03:00:38.734Z,8.88
2022-11-03T03:01:38.908Z,8.89
2022-11-03T03:02:38.756Z,9.08
2022-11-03T03:03:38.739Z,8.94
2022-11-03T03:04:38.761Z,8.99
2022-11-03T03:05:38.747Z,9.13
2022-11-03T03:06:38.756Z,9.10
2022-11-03T03:07:38.754Z,9.16
2022-11-03T03:08:38.755Z,9.08
2022-11-03T03:09:38.762Z,9.18
2022-11-03T03:10:38.762Z,9.14
2022-11-03T03:11:39.375Z,9.10
2022-11-03T03:12:38.770Z,9.10
2022-11-03T03:13:38.774Z,9.13
2022-11-03T03:14:38.784Z,9.11
2022-11-03T03:15:38.788Z,9.08
2022-11-03T03:16:38.785Z,9.10
2022-11-03T03:17:38.794Z,9.10
2022-11-03T03:18:38.791Z,9.06
2022-11-03T03:19:38.801Z,9.11
2022-11-03T03:20:38.828Z,9.00
2022-11-03T03:21:38.808Z,9.10
2022-11-03T03:22:38.813Z,9.06
2022-11-03T03:23:38.815Z,9.08
2022-11-03T03:24:38.814Z,9.06
2022-11-03T03:25:38.815Z,9.13
2022-11-03T03:26:38.829Z,8.89
2022-11-03T03:27:38.823Z,8.91
2022-11-03T03:28:38.835Z,9.00
2022-11-03T03:29:38.830Z,8.94
2022-11-03T03:30:38.834Z,8.88
2022-11-03T03:31:38.856Z,8.88
2022-11-03T03:32:38.843Z,8.85
2022-11-03T03:33:40.776Z,8.88
2022-11-03T03:34:38.855Z,8.87
2022-11-03T03:35:38.852Z,8.94
2022-11-03T03:36:38.874Z,8.94
2022-11-03T03:37:38.859Z,8.91
2022-11-03T03:38:38.870Z,9.00
2022-11-03T03:39:38.868Z,9.00
2022-11-03T03:40:38.878Z,9.04
2022-11-03T03:41:38.881Z,8.95
2022-11-03T03:42:38.885Z,9.13
2022-11-03T03:43:38.886Z,9.08
2022-11-03T03:44:38.884Z,9.10
2022-11-03T03:45:38.894Z,9.04
2022-11-03T03:46:38.894Z,8.97
2022-11-03T03:47:38.901Z,8.87
2022-11-03T03:48:38.906Z,8.87
2022-11-03T03:49:38.909Z,8.89
2022-11-03T03:50:38.916Z,8.89
2022-11-03T03:51:38.909Z,8.84
2022-11-03T03:52:38.939Z,8.88
2022-11-03T03:53:38.925Z,8.78
2022-11-03T03:54:38.926Z,8.76
2022-11-03T03:55:38.925Z,8.76
2022-11-03T03:56:38.927Z,8.76
2022-11-03T03:57:38.953Z,8.67
2022-11-03T03:58:38.940Z,8.69
2022-11-03T03:59:38.945Z,8.73
2022-11-03T04:00:38.948Z,8.66
2022-11-03T04:01:39.309Z,8.64
2022-11-03T04:02:39.055Z,8.71
2022-11-03T04:03:38.952Z,8.63
2022-11-03T04:04:38.961Z,8.66
2022-11-03T04:05:38.960Z,8.64
2022-11-03T04:06:38.961Z,8.64
2022-11-03T04:07:43.468Z,8.64
2022-11-03T04:08:38.990Z,8.64
2022-11-03T04:09:38.981Z,8.78
2022-11-03T04:10:38.983Z,8.71
2022-11-03T04:11:38.989Z,8.66
2022-11-03T04:12:38.991Z,8.71
2022-11-03T04:13:38.986Z,8.64
2022-11-03T04:14:38.990Z,8.64
2022-11-03T04:15:39.003Z,8.49
2022-11-03T04:16:38.999Z,8.58
2022-11-03T04:17:39.059Z,8.53
2022-11-03T04:18:39.011Z,8.52
2022-11-03T04:19:39.009Z,8.55
2022-11-03T04:20:39.019Z,8.51
2022-11-03T04:21:39.013Z,8.49
2022-11-03T04:22:39.026Z,8.38
2022-11-03T04:23:39.026Z,8.41
2022-11-03T04:24:39.064Z,8.46
2022-11-03T04:25:39.044Z,8.51
2022-11-03T04:26:39.030Z,8.52
2022-11-03T04:27:39.035Z,8.52
2022-11-03T04:28:39.039Z,8.56
2022-11-03T04:29:39.043Z,8.69
2022-11-03T04:30:39.050Z,8.71
2022-11-03T04:31:39.057Z,8.78
2022-11-03T04:32:39.051Z,8.79
2022-11-03T04:33:39.056Z,8.76
2022-11-03T04:34:39.064Z,8.76
2022-11-03T04:35:39.062Z,8.76
2022-11-03T04:36:39.064Z,8.66
2022-11-03T04:37:41.536Z,8.58
2022-11-03T04:38:39.078Z,8.63
2022-11-03T04:39:39.110Z,8.60
2022-11-03T04:40:39.100Z,8.67
2022-11-03T04:41:39.092Z,8.64
2022-11-03T04:42:39.084Z,8.69
2022-11-03T04:43:39.096Z,8.67
2022-11-03T04:44:39.092Z,8.67
2022-11-03T04:45:39.103Z,8.70
2022-11-03T04:46:39.106Z,8.64
2022-11-03T04:47:39.108Z,8.64
2022-11-03T04:48:39.106Z,8.70
2022-11-03T04:49:39.109Z,8.71
2022-11-03T04:50:42.880Z,8.74
2022-11-03T04:51:39.121Z,8.73
2022-11-03T04:52:39.127Z,8.73
2022-11-03T04:53:39.124Z,8.76
2022-11-03T04:54:39.125Z,8.81
2022-11-03T04:55:39.135Z,8.78
2022-11-03T04:56:39.153Z,8.79
2022-11-03T04:57:39.141Z,8.78
2022-11-03T04:58:39.148Z,8.78
2022-11-03T04:59:39.149Z,8.73
2022-11-03T05:00:39.306Z,8.74
2022-11-03T05:01:39.369Z,8.73
2022-11-03T05:02:39.152Z,8.89
2022-11-03T05:03:39.164Z,8.79
2022-11-03T05:04:39.163Z,8.78
2022-11-03T05:05:39.171Z,8.74
2022-11-03T05:06:39.172Z,8.81
2022-11-03T05:07:39.170Z,8.78
2022-11-03T05:08:39.180Z,8.79
2022-11-03T05:09:42.820Z,8.69
2022-11-03T05:10:39.188Z,8.74
2022-11-03T05:11:39.184Z,8.73
2022-11-03T05:12:39.204Z,8.63
2022-11-03T05:13:39.192Z,8.61
2022-11-03T05:14:39.194Z,8.64
2022-11-03T05:15:39.205Z,8.61
2022-11-03T05:16:39.200Z,8.58
2022-11-03T05:17:39.203Z,8.69
2022-11-03T05:18:39.209Z,8.60
2022-11-03T05:19:39.209Z,8.63
2022-11-03T05:20:39.222Z,8.56
2022-11-03T05:21:39.218Z,8.60
2022-11-03T05:22:39.228Z,8.49
2022-11-03T05:23:39.230Z,8.60
2022-11-03T05:24:39.235Z,8.60
2022-11-03T05:25:39.237Z,8.52
2022-11-03T05:26:39.240Z,8.63
2022-11-03T05:27:39.245Z,8.51
2022-11-03T05:28:39.268Z,8.53
2022-11-03T05:29:39.243Z,8.53
2022-11-03T05:30:39.247Z,8.46
2022-11-03T05:31:39.250Z,8.49
2022-11-03T05:32:39.254Z,8.37
2022-11-03T05:33:39.263Z,8.45
2022-11-03T05:34:39.260Z,8.38
2022-11-03T05:35:39.264Z,8.34
2022-11-03T05:36:39.274Z,8.33
2022-11-03T05:37:39.271Z,8.28
2022-11-03T05:38:39.284Z,8.30
2022-11-03T05:39:39.278Z,8.24
2022-11-03T05:40:39.287Z,8.18
2022-11-03T05:41:39.287Z,8.26
2022-11-03T05:42:39.293Z,8.19
2022-11-03T05:43:39.298Z,8.23
2022-11-03T05:44:39.319Z,8.23
2022-11-03T05:45:39.308Z,8.19
2022-11-03T05:46:39.305Z,8.12
2022-11-03T05:47:39.305Z,8.12
2022-11-03T05:48:39.305Z,7.97
2022-11-03T05:49:39.318Z,7.97
2022-11-03T05:50:39.318Z,7.98
2022-11-03T05:51:39.315Z,8.05
2022-11-03T05:52:39.329Z,7.90
2022-11-03T05:53:39.333Z,7.87
2022-11-03T05:54:39.350Z,7.90
2022-11-03T05:55:39.334Z,7.94
2022-11-03T05:56:39.341Z,7.87
2022-11-03T05:57:39.342Z,7.94
2022-11-03T05:58:39.346Z,7.90
2022-11-03T05:59:39.350Z,7.80
2022-11-03T06:00:41.095Z,7.85
2022-11-03T06:01:39.412Z,7.67
2022-11-03T06:02:39.421Z,7.75
2022-11-03T06:03:39.359Z,7.76
2022-11-03T06:04:39.357Z,7.73
2022-11-03T06:05:39.368Z,7.70
2022-11-03T06:06:39.364Z,7.88
2022-11-03T06:07:39.364Z,7.90
2022-11-03T06:08:41.720Z,7.87
2022-11-03T06:09:39.380Z,7.83
2022-11-03T06:10:39.381Z,7.82
2022-11-03T06:11:39.386Z,7.83
2022-11-03T06:12:39.382Z,7.90
2022-11-03T06:13:39.394Z,7.94
2022-11-03T06:14:39.393Z,7.98
2022-11-03T06:15:39.398Z,8.12
2022-11-03T06:16:39.421Z,8.08
2022-11-03T06:17:39.405Z,8.13
2022-11-03T06:18:39.406Z,8.13
2022-11-03T06:19:39.416Z,8.15
2022-11-03T06:20:39.404Z,8.20
2022-11-03T06:21:44.399Z,8.13
2022-11-03T06:22:39.427Z,8.16
2022-11-03T06:23:39.415Z,8.23
2022-11-03T06:24:39.430Z,8.20
2022-11-03T06:25:39.422Z,8.20
2022-11-03T06:26:39.432Z,8.27
2022-11-03T06:27:39.434Z,8.27
2022-11-03T06:28:39.434Z,8.10
2022-11-03T06:29:39.441Z,8.15
2022-11-03T06:30:39.587Z,8.19
2022-11-03T06:31:39.447Z,8.18
2022-11-03T06:32:39.462Z,8.23
2022-11-03T06:33:39.447Z,8.20
2022-11-03T06:34:39.451Z,8.13
2022-11-03T06:35:39.461Z,8.16
2022-11-03T06:36:39.461Z,8.20
2022-11-03T06:37:39.458Z,8.13
2022-11-03T06:38:39.467Z,8.15
2022-11-03T06:39:39.465Z,8.13
2022-11-03T06:40:39.473Z,8.16
2022-11-03T06:41:39.478Z,8.23
2022-11-03T06:42:39.473Z,8.26
2022-11-03T06:43:39.485Z,8.41
2022-11-03T06:44:39.489Z,8.44
2022-11-03T06:45:39.484Z,8.42
2022-11-03T06:46:39.494Z,8.48
2022-11-03T06:47:39.492Z,8.58
2022-11-03T06:48:39.511Z,8.85
2022-11-03T06:49:39.504Z,9.04
2022-11-03T06:50:44.650Z,9.22
2022-11-03T06:51:39.510Z,9.46
2022-11-03T06:52:39.606Z,9.61
2022-11-03T06:53:39.511Z,9.72
2022-11-03T06:54:39.509Z,9.83
2022-11-03T06:55:39.517Z,9.94
2022-11-03T06:56:39.528Z,10.17
2022-11-03T06:57:39.530Z,10.40
2022-11-03T06:58:39.533Z,10.82
2022-11-03T06:59:39.530Z,11.07
2022-11-03T07:00:40.966Z,11.32
2022-11-03T07:01:39.674Z,11.55
2022-11-03T07:02:39.672Z,11.83
2022-11-03T07:03:39.543Z,12.20
2022-11-03T07:04:39.573Z,12.47
2022-11-03T07:05:39.550Z,12.87
2022-11-03T07:06:39.554Z,13.30
2022-11-03T07:07:39.558Z,13.72
2022-11-03T07:08:39.576Z,14.10
2022-11-03T07:09:39.573Z,14.54
2022-11-03T07:10:39.571Z,14.81
2022-11-03T07:11:39.573Z,15.15
2022-11-03T07:12:39.587Z,15.46
2022-11-03T07:13:39.584Z,15.76
2022-11-03T07:14:39.589Z,15.86
2022-11-03T07:15:39.595Z,16.04
2022-11-03T07:16:39.598Z,16.04
2022-11-03T07:17:39.606Z,16.15
2022-11-03T07:18:39.606Z,16.35
2022-11-03T07:19:39.619Z,16.61
2022-11-03T07:20:39.649Z,16.81
2022-11-03T07:21:39.623Z,17.01
2022-11-03T07:22:39.634Z,17.08
2022-11-03T07:23:42.137Z,17.11
2022-11-03T07:24:39.638Z,17.19
2022-11-03T07:25:39.647Z,17.36
2022-11-03T07:26:39.655Z,17.38
2022-11-03T07:27:39.665Z,17.41
2022-11-03T07:28:39.676Z,17.48
2022-11-03T07:29:39.669Z,17.56
2022-11-03T07:30:39.673Z,17.76
2022-11-03T07:31:39.681Z,17.83
2022-11-03T07:32:39.693Z,17.78
2022-11-03T07:33:39.695Z,17.64
2022-11-03T07:34:39.699Z,17.41
2022-11-03T07:36:08.457Z,17.33
2022-11-03T07:36:39.737Z,17.09
2022-11-03T07:37:39.727Z,16.90
2022-11-03T07:38:39.735Z,16.72
2022-11-03T07:39:39.740Z,16.41
2022-11-03T07:40:39.739Z,16.29
2022-11-03T07:41:39.744Z,16.20
2022-11-03T07:42:39.751Z,16.01
2022-11-03T07:43:39.764Z,16.00
2022-11-03T07:44:39.765Z,15.95
2022-11-03T07:45:39.785Z,15.83
2022-11-03T07:46:39.786Z,15.72
2022-11-03T07:47:39.791Z,15.65
2022-11-03T07:48:39.799Z,15.57
2022-11-03T07:49:39.806Z,15.57
2022-11-03T07:50:39.805Z,15.62
2022-11-03T07:51:39.810Z,15.57
2022-11-03T07:52:39.837Z,15.42
2022-11-03T07:53:39.830Z,15.25
2022-11-03T07:54:39.836Z,15.15
2022-11-03T07:55:39.876Z,14.96
2022-11-03T07:56:39.852Z,14.70
2022-11-03T07:57:39.858Z,14.62
2022-11-03T07:58:39.862Z,14.33
2022-11-03T07:59:39.864Z,14.05
2022-11-03T08:00:39.885Z,13.71
2022-11-03T08:01:40.001Z,13.59
2022-11-03T08:02:39.987Z,13.38
2022-11-03T08:03:39.888Z,13.25
2022-11-03T08:04:39.903Z,12.98
2022-11-03T08:05:39.901Z,12.68
2022-11-03T08:06:39.914Z,12.60
2022-11-03T08:07:39.930Z,12.50
2022-11-03T08:08:39.948Z,12.24
2022-11-03T08:09:39.926Z,12.09
2022-11-03T08:10:39.937Z,11.94
2022-11-03T08:11:39.950Z,11.81
2022-11-03T08:12:39.949Z,11.73
2022-11-03T08:13:39.958Z,11.62
2022-11-03T08:14:39.953Z,11.57
2022-11-03T08:15:39.968Z,11.45
2022-11-03T08:16:39.972Z,11.47
2022-11-03T08:17:39.973Z,11.45
2022-11-03T08:18:39.983Z,11.36
2022-11-03T08:19:39.992Z,11.36
2022-11-03T08:20:39.995Z,11.30
2022-11-03T08:21:40.008Z,11.47
2022-11-03T08:22:41.623Z,11.59
2022-11-03T08:23:43.262Z,11.62
2022-11-03T08:24:40.038Z,11.55
2022-11-03T08:25:40.027Z,11.70
2022-11-03T08:26:40.025Z,11.70
2022-11-03T08:27:40.033Z,11.90
2022-11-03T08:28:40.034Z,11.73
2022-11-03T08:29:40.038Z,11.83
2022-11-03T08:30:40.063Z,11.90
2022-11-03T08:31:40.055Z,12.03
2022-11-03T08:32:40.055Z,12.00
2022-11-03T08:33:40.064Z,12.00
2022-11-03T08:34:40.066Z,12.04
2022-11-03T08:35:40.078Z,12.06
2022-11-03T08:36:40.101Z,12.13
2022-11-03T08:37:40.092Z,12.20
2022-11-03T08:38:40.107Z,12.18
2022-11-03T08:39:40.093Z,12.29
2022-11-03T08:40:40.124Z,12.36
2022-11-03T08:41:40.113Z,12.43
2022-11-03T08:42:40.112Z,12.40
2022-11-03T08:43:40.117Z,12.45
2022-11-03T08:44:40.125Z,12.62
2022-11-03T08:45:40.138Z,12.62
2022-11-03T08:46:40.142Z,12.57
2022-11-03T08:47:40.150Z,12.54
2022-11-03T08:48:40.296Z,12.55
2022-11-03T08:49:40.154Z,12.60
2022-11-03T08:50:40.157Z,12.61
2022-11-03T08:51:44.157Z,12.55
2022-11-03T08:52:40.169Z,12.43
2022-11-03T08:53:40.176Z,12.43
2022-11-03T08:54:40.182Z,12.29
2022-11-03T08:55:40.191Z,12.31
2022-11-03T08:56:40.235Z,12.31
2022-11-03T08:57:40.212Z,12.27
2022-11-03T08:58:40.206Z,12.17
2022-11-03T08:59:40.211Z,11.99
2022-11-03T09:00:41.261Z,11.99
2022-11-03T09:01:40.359Z,11.80
2022-11-03T09:02:40.277Z,11.70
2022-11-03T09:03:40.311Z,11.70
2022-11-03T09:04:40.250Z,11.62
2022-11-03T09:05:40.248Z,11.48
2022-11-03T09:06:40.255Z,11.43
2022-11-03T09:10:42.695Z,11.32
2022-11-03T09:11:40.281Z,11.36
2022-11-03T09:12:40.322Z,11.35
2022-11-03T09:13:40.299Z,11.33
2022-11-03T09:14:40.301Z,11.32
2022-11-03T09:15:40.304Z,11.35
2022-11-03T09:16:40.310Z,11.37
2022-11-03T09:17:43.194Z,11.33
2022-11-03T09:18:40.321Z,11.29
2022-11-03T09:19:40.328Z,11.27
2022-11-03T09:20:40.339Z,11.35
2022-11-03T09:21:40.346Z,11.32
2022-11-03T09:22:40.344Z,11.26
2022-11-03T09:23:40.350Z,11.26
2022-11-03T09:24:40.363Z,11.22
2022-11-03T09:25:40.369Z,11.30
2022-11-03T09:26:40.368Z,11.41
2022-11-03T09:27:40.379Z,11.36
2022-11-03T09:28:40.413Z,11.33
2022-11-03T09:30:06.486Z,11.48
2022-11-03T09:30:40.386Z,11.50
2022-11-03T09:31:40.402Z,11.51
2022-11-03T09:32:40.406Z,11.51
2022-11-03T09:33:40.405Z,11.54
2022-11-03T09:34:40.416Z,11.54
2022-11-03T09:35:40.416Z,11.57
2022-11-03T09:36:40.423Z,11.62
2022-11-03T09:37:40.427Z,11.51
2022-11-03T09:38:40.453Z,11.51
2022-11-03T09:39:40.437Z,11.52
2022-11-03T09:40:40.474Z,11.55
2022-11-03T09:41:57.101Z,11.50
2022-11-03T09:42:40.457Z,11.59
2022-11-03T09:43:40.460Z,11.59
2022-11-03T09:44:40.487Z,11.57
2022-11-03T09:45:40.473Z,11.66
2022-11-03T09:46:40.485Z,11.70
2022-11-03T09:47:40.485Z,11.72
2022-11-03T09:48:40.497Z,11.73
2022-11-03T09:49:40.507Z,11.66
2022-11-03T09:50:40.510Z,11.66
2022-11-03T09:51:40.512Z,11.73
2022-11-03T09:52:40.519Z,11.75
2022-11-03T09:53:40.519Z,11.77
2022-11-03T09:54:40.523Z,11.88
2022-11-03T09:55:40.532Z,11.88
2022-11-03T09:56:40.542Z,11.99
2022-11-03T09:57:40.550Z,12.12
2022-11-03T09:58:40.554Z,12.17
2022-11-03T09:59:40.554Z,12.24
2022-11-03T10:00:40.677Z,12.27
2022-11-03T10:01:40.698Z,12.22
2022-11-03T10:02:40.577Z,12.20
2022-11-03T10:03:40.580Z,12.29
2022-11-03T10:04:40.590Z,12.37
2022-11-03T10:05:40.590Z,12.35
2022-11-03T10:06:40.601Z,12.37
2022-11-03T10:07:40.761Z,12.47
2022-11-03T10:08:40.619Z,12.39
2022-11-03T10:09:40.620Z,12.47
2022-11-03T10:10:40.619Z,12.42
2022-11-03T10:11:40.626Z,12.47
2022-11-03T10:12:40.641Z,12.49
2022-11-03T10:13:40.648Z,12.49
2022-11-03T10:14:40.652Z,12.46
2022-11-03T10:15:40.657Z,12.49
2022-11-03T10:16:40.680Z,12.53
2022-11-03T10:17:40.663Z,12.43
2022-11-03T10:18:40.678Z,12.54
2022-11-03T10:19:40.682Z,12.62
2022-11-03T10:20:40.695Z,12.58
2022-11-03T10:21:40.701Z,12.75
2022-11-03T10:22:41.368Z,12.76
2022-11-03T10:23:40.708Z,12.80
2022-11-03T10:24:40.720Z,12.83
2022-11-03T10:25:40.723Z,12.95
2022-11-03T10:26:40.721Z,13.03
2022-11-03T10:27:40.738Z,13.01
2022-11-03T10:28:40.741Z,13.08
2022-11-03T10:29:42.427Z,13.09
2022-11-03T10:30:57.960Z,13.08
2022-11-03T10:31:40.776Z,13.08
2022-11-03T10:32:40.789Z,13.19
2022-11-03T10:33:40.867Z,13.19
2022-11-03T10:34:40.785Z,13.22
2022-11-03T10:35:40.791Z,13.31
2022-11-03T10:36:40.796Z,13.31
2022-11-03T10:37:40.806Z,13.18
2022-11-03T10:38:40.802Z,13.20
2022-11-03T10:39:40.819Z,13.16
2022-11-03T10:40:48.814Z,13.20
2022-11-03T10:41:40.831Z,13.22
2022-11-03T10:42:40.829Z,13.28
2022-11-03T10:43:40.837Z,13.35
2022-11-03T10:44:40.844Z,13.38
2022-11-03T10:45:40.857Z,13.53
2022-11-03T10:46:56.306Z,13.57
2022-11-03T10:47:40.864Z,13.62
2022-11-03T10:48:40.893Z,13.74
2022-11-03T10:49:43.634Z,13.78
2022-11-03T10:50:40.902Z,13.86
2022-11-03T10:51:40.900Z,13.90
2022-11-03T10:52:40.903Z,13.89
2022-11-03T10:53:40.909Z,13.95
2022-11-03T10:54:40.917Z,13.96
2022-11-03T10:55:40.934Z,14.00
2022-11-03T10:56:40.939Z,14.00
2022-11-03T10:57:40.944Z,14.00
2022-11-03T10:58:40.945Z,14.10
2022-11-03T10:59:40.957Z,14.22
2022-11-03T11:00:41.081Z,14.48
2022-11-03T11:01:41.159Z,14.62
2022-11-03T11:02:41.090Z,14.91
2022-11-03T11:03:40.984Z,15.17
2022-11-03T11:04:41.157Z,15.33
2022-11-03T11:05:41.007Z,15.57
2022-11-03T11:07:23.550Z,16.01
2022-11-03T11:08:23.695Z,16.28
2022-11-03T11:09:23.576Z,16.56
2022-11-03T11:10:23.577Z,16.81
2022-11-03T11:11:23.588Z,17.08
2022-11-03T11:12:23.603Z,17.33
2022-11-03T11:13:23.612Z,17.60
2022-11-03T11:14:23.617Z,17.74
2022-11-03T11:15:23.624Z,18.01
2022-11-03T11:16:23.645Z,18.16
2022-11-03T11:17:23.646Z,18.33
2022-11-03T11:18:23.662Z,18.43
2022-11-03T11:20:21.554Z,18.55
2022-11-03T11:21:21.253Z,18.74
2022-11-03T11:23:18.848Z,18.75
2022-11-03T11:24:18.858Z,18.74
2022-11-03T11:25:18.863Z,18.81
2022-11-03T11:26:19.689Z,19.04
2022-11-03T11:28:26.484Z,19.00
2022-11-03T11:29:26.500Z,19.02
2022-11-03T11:30:26.506Z,19.11
2022-11-03T11:31:26.517Z,19.31
2022-11-03T11:32:26.539Z,19.52
2022-11-03T11:33:26.550Z,19.54
2022-11-03T11:34:26.557Z,19.56
2022-11-03T11:35:26.589Z,19.69
2022-11-03T11:36:30.212Z,19.63
2022-11-03T11:37:26.599Z,19.69
2022-11-03T11:38:26.609Z,19.70
2022-11-03T11:39:29.846Z,19.67
2022-11-03T12:11:15.767Z,19.45
2022-11-03T12:16:24.881Z,19.09
2022-11-03T12:17:24.897Z,18.86
2022-11-03T12:18:24.904Z,18.78
2022-11-03T12:19:24.914Z,18.63
2022-11-03T12:20:24.929Z,18.58
2022-11-03T12:21:24.945Z,18.38
2022-11-03T12:22:24.984Z,18.26
2022-11-03T12:23:24.970Z,18.19
2022-11-03T12:24:24.983Z,18.07
2022-11-03T12:25:24.986Z,18.05
2022-11-03T12:26:25.031Z,18.05
2022-11-03T12:27:25.020Z,18.08
2022-11-03T12:28:25.023Z,18.10
2022-11-03T12:29:25.043Z,18.15
2022-11-03T12:30:25.054Z,18.19
2022-11-03T12:31:25.062Z,18.11
2022-11-03T12:32:33.723Z,18.13
2022-11-03T12:33:25.085Z,18.04
2022-11-03T12:34:25.104Z,18.11
2022-11-03T12:35:25.106Z,18.05
2022-11-03T12:36:25.116Z,18.13
2022-11-03T12:37:25.142Z,18.05
2022-11-03T12:38:25.141Z,17.95
2022-11-03T12:39:25.155Z,17.92
2022-11-03T12:40:25.170Z,17.87
2022-11-03T12:41:25.179Z,17.79
2022-11-03T12:42:25.585Z,17.79
2022-11-03T12:43:25.204Z,17.72
2022-11-03T12:44:25.295Z,17.72
2022-11-03T12:45:25.225Z,17.74
2022-11-03T12:46:25.237Z,17.59
2022-11-03T12:47:25.244Z,17.46
2022-11-03T12:48:25.265Z,17.29
2022-11-03T12:49:25.276Z,17.22
2022-11-03T12:50:25.287Z,16.99
2022-11-03T12:51:25.287Z,16.78
2022-11-03T12:52:25.299Z,16.79
2022-11-03T12:53:25.310Z,16.66
2022-11-03T12:54:25.324Z,16.56
2022-11-03T12:55:25.373Z,16.68
2022-11-03T12:56:25.349Z,16.58
2022-11-03T12:57:25.357Z,16.60
2022-11-03T12:58:25.384Z,16.54
2022-11-03T12:59:25.371Z,16.60
2022-11-03T13:00:25.390Z,16.56
2022-11-03T13:01:25.573Z,16.56
2022-11-03T13:02:25.667Z,16.54
2022-11-03T13:03:25.421Z,16.50
2022-11-03T13:04:25.420Z,16.41
2022-11-03T13:05:25.432Z,16.39
2022-11-03T13:06:25.449Z,16.35
2022-11-03T13:07:29.118Z,16.31
2022-11-03T13:08:25.467Z,16.24
2022-11-03T13:09:25.473Z,16.26
2022-11-03T13:10:25.483Z,16.24
2022-11-03T13:11:25.497Z,16.23
2022-11-03T13:12:25.498Z,16.26
2022-11-03T13:13:25.510Z,16.24
2022-11-03T13:14:25.537Z,16.35
2022-11-03T13:15:25.527Z,16.46
2022-11-03T13:16:25.543Z,16.46
2022-11-03T13:17:31.747Z,16.42
2022-11-03T13:18:25.561Z,16.53
2022-11-03T13:19:25.564Z,16.43
2022-11-03T13:20:25.577Z,16.36
2022-11-03T13:21:25.591Z,16.39
2022-11-03T13:22:25.594Z,16.35
2022-11-03T13:23:25.602Z,16.24
2022-11-03T13:24:25.613Z,16.20
2022-11-03T13:25:25.656Z,16.12
2022-11-03T13:26:25.639Z,16.13
2022-11-03T13:27:25.646Z,16.08
2022-11-03T13:28:25.652Z,16.01
2022-11-03T13:29:25.658Z,16.04
2022-11-03T13:30:25.689Z,15.90
2022-11-03T13:31:25.682Z,15.90
2022-11-03T13:32:25.687Z,15.82
2022-11-03T13:33:25.693Z,15.84
2022-11-03T13:34:25.705Z,15.82
2022-11-03T13:35:25.717Z,15.76
2022-11-03T13:36:25.878Z,15.73
2022-11-03T13:37:25.737Z,15.77
2022-11-03T13:38:25.750Z,15.75
2022-11-03T13:39:25.749Z,15.72
2022-11-03T13:41:25.765Z,15.61
2022-11-03T13:42:25.780Z,15.62
2022-11-03T13:43:25.791Z,15.58
2022-11-03T13:44:25.798Z,15.57
2022-11-03T13:45:25.809Z,15.47
2022-11-03T13:46:25.835Z,15.52
2022-11-03T13:47:40.467Z,15.46
2022-11-03T13:50:25.888Z,15.44
2022-11-03T13:51:25.931Z,15.43